createdAt,value
2023-05-13T00:00:24.754Z,99810.66
2023-05-13T00:05:27.214Z,99783.56
2023-05-13T00:10:29.734Z,99693.56
2023-05-13T00:15:32.093Z,99818.50
2023-05-13T00:20:34.552Z,99761.69
2023-05-13T00:25:38.464Z,99817.56
2023-05-13T00:30:44.820Z,99815.81
2023-05-13T00:35:47.312Z,99782.59
2023-05-13T00:40:50.476Z,99776.41
2023-05-13T00:45:53.022Z,99709.13
2023-05-13T00:50:55.942Z,99821.88
2023-05-13T00:55:58.325Z,99752.81
2023-05-13T01:01:07.186Z,99831.44
2023-05-13T01:06:15.010Z,99736.94
2023-05-13T01:11:39.574Z,99844.53
2023-05-13T01:17:08.878Z,99850.56
2023-05-13T01:22:11.676Z,99827.72
2023-05-13T01:27:14.711Z,99762.13
2023-05-13T01:32:17.407Z,99831.19
2023-05-13T01:37:21.438Z,99854.75
2023-05-13T01:42:25.005Z,99828.50
2023-05-13T01:47:29.079Z,99855.59
2023-05-13T01:52:32.903Z,99785.63
2023-05-13T01:57:35.597Z,99754.13
2023-05-13T02:02:38.374Z,99863.38
2023-05-13T02:07:40.843Z,99861.63
2023-05-13T02:12:45.486Z,99868.59
2023-05-13T02:17:48.082Z,99819.63
2023-05-13T02:22:50.774Z,99863.34
2023-05-13T02:27:53.231Z,99839.72
2023-05-13T02:32:57.182Z,99851.09
2023-05-13T02:37:59.649Z,99781.03
2023-05-13T02:43:04.009Z,99660.44
2023-05-13T02:48:20.211Z,99862.44
2023-05-13T02:53:23.561Z,99886.94
2023-05-13T02:58:30.810Z,99878.25
2023-05-13T03:03:34.790Z,99881.78
2023-05-13T03:08:37.546Z,99826.72
2023-05-13T03:13:39.905Z,99747.97
2023-05-13T03:18:42.520Z,99812.78
2023-05-13T03:23:45.260Z,99828.56
2023-05-13T03:28:47.827Z,99869.78
2023-05-13T03:33:51.147Z,99895.25
2023-05-13T03:38:53.664Z,99878.69
2023-05-13T03:43:56.194Z,99900.66
2023-05-13T03:48:58.775Z,99898.06
2023-05-13T03:54:04.117Z,99872.75
2023-05-13T03:59:06.979Z,99871.88
2023-05-13T04:04:11.546Z,99854.41
2023-05-13T04:09:13.940Z,99832.56
2023-05-13T04:14:18.420Z,99773.13
2023-05-13T04:19:20.857Z,99681.44
2023-05-13T04:24:23.208Z,99819.25
2023-05-13T04:29:25.819Z,99778.97
2023-05-13T04:34:28.387Z,99875.72
2023-05-13T04:39:31.348Z,99745.56
2023-05-13T04:44:35.395Z,99633.91
2023-05-13T04:49:37.910Z,99522.25
2023-05-13T04:54:42.897Z,99840.91
2023-05-13T04:59:46.209Z,99785.97
2023-05-13T05:04:49.867Z,99892.69
2023-05-13T05:09:53.457Z,99912.63
2023-05-13T05:14:56.823Z,99501.34
2023-05-13T05:20:00.182Z,99743.81
2023-05-13T05:25:03.940Z,99884.56
2023-05-13T05:30:07.376Z,99906.88
2023-05-13T05:35:11.532Z,99895.00
2023-05-13T05:40:14.409Z,99910.50
2023-05-13T05:45:17.143Z,99901.34
2023-05-13T05:50:21.138Z,99873.22
2023-05-13T05:55:23.960Z,99904.19
2023-05-13T06:00:27.816Z,99793.44
2023-05-13T06:05:31.029Z,99855.63
2023-05-13T06:10:33.408Z,99902.44
2023-05-13T06:15:37.079Z,99891.00
2023-05-13T06:20:40.378Z,99876.72
2023-05-13T06:25:42.912Z,99878.72
2023-05-13T06:30:46.287Z,99894.06
2023-05-13T06:35:50.288Z,99886.47
2023-05-13T06:40:56.378Z,99786.97
2023-05-13T06:46:05.616Z,99886.00
2023-05-13T06:51:08.234Z,99868.13
2023-05-13T06:56:10.614Z,99892.03
2023-05-13T07:01:13.174Z,99849.16
2023-05-13T07:06:15.805Z,99881.75
2023-05-13T07:11:18.707Z,99882.25
2023-05-13T07:16:21.597Z,99885.16
2023-05-13T07:21:24.249Z,99803.88
2023-05-13T07:26:26.853Z,99799.09
2023-05-13T07:31:30.922Z,99820.69
2023-05-13T07:36:33.524Z,99797.00
2023-05-13T07:41:36.966Z,99877.28
2023-05-13T07:46:42.605Z,99856.09
2023-05-13T07:51:45.056Z,99802.72
2023-05-13T07:56:48.406Z,99835.41
2023-05-13T08:01:51.949Z,99865.81
2023-05-13T08:06:54.476Z,99871.59
2023-05-13T08:11:57.257Z,99838.22
2023-05-13T08:16:59.772Z,99846.25
2023-05-13T08:22:02.276Z,99845.91
2023-05-13T08:27:06.042Z,99800.41
2023-05-13T08:32:08.580Z,99824.84
2023-05-13T08:37:11.035Z,99867.25
2023-05-13T08:42:15.533Z,99869.88
2023-05-13T08:47:36.831Z,99840.47
2023-05-13T08:52:40.477Z,99858.25
2023-05-13T08:57:43.123Z,99814.38
2023-05-13T09:02:45.941Z,99720.88
2023-05-13T09:07:48.527Z,99825.31
2023-05-13T09:12:55.549Z,99837.69
2023-05-13T09:18:05.102Z,99834.66
2023-05-13T09:23:11.878Z,99828.97
2023-05-13T09:28:15.293Z,99835.66
2023-05-13T09:33:22.106Z,99827.78
2023-05-13T09:38:29.695Z,99773.84
2023-05-13T09:43:33.413Z,99802.84
2023-05-13T09:48:38.387Z,99785.69
2023-05-13T09:53:41.664Z,99770.44
2023-05-13T09:58:52.302Z,99756.81
2023-05-13T10:03:56.732Z,99741.50
2023-05-13T10:09:03.624Z,99807.69
2023-05-13T10:14:07.189Z,99806.31
2023-05-13T10:19:10.762Z,99794.31
2023-05-13T10:24:14.017Z,99784.53
2023-05-13T10:29:17.441Z,99749.50
2023-05-13T10:34:19.895Z,99799.47
2023-05-13T10:39:36.167Z,99793.88
2023-05-13T10:44:38.576Z,99767.00
2023-05-13T10:49:41.124Z,99762.38
2023-05-13T10:54:43.518Z,99765.69
2023-05-13T11:00:16.428Z,99773.34
2023-05-13T11:05:22.386Z,99781.34
2023-05-13T11:10:32.256Z,99757.66
2023-05-13T11:15:51.198Z,99751.28
2023-05-13T11:20:54.283Z,99773.34
2023-05-13T11:26:19.312Z,99724.19
2023-05-13T11:31:24.106Z,99719.63
2023-05-13T11:36:31.301Z,99715.78
2023-05-13T11:41:34.721Z,99708.56
2023-05-13T11:46:37.625Z,99746.19
2023-05-13T11:51:40.465Z,99688.34
2023-05-13T11:56:43.602Z,99708.69
2023-05-13T12:01:46.245Z,99724.88
2023-05-13T12:06:49.474Z,99737.06
2023-05-13T12:11:53.165Z,99714.50
2023-05-13T12:16:56.880Z,99714.50
2023-05-13T12:22:00.133Z,99709.13
2023-05-13T12:27:09.437Z,99714.16
2023-05-13T12:32:17.365Z,99740.31
2023-05-13T12:37:19.827Z,99673.28
2023-05-13T12:42:22.618Z,99693.03
2023-05-13T12:47:25.302Z,99692.00
2023-05-13T12:52:27.859Z,99722.28
2023-05-13T12:57:32.241Z,99686.41
2023-05-13T13:02:34.954Z,99651.53
2023-05-13T13:07:38.489Z,99663.13
2023-05-13T13:12:41.032Z,99694.44
2023-05-13T13:17:48.392Z,99663.56
2023-05-13T13:22:50.859Z,99674.09
2023-05-13T13:27:53.193Z,99699.28
2023-05-13T13:32:55.814Z,99709.66
2023-05-13T13:37:58.258Z,99668.66
2023-05-13T13:43:00.754Z,99673.75
2023-05-13T13:48:03.337Z,99644.50
2023-05-13T13:53:06.032Z,99670.38
2023-05-13T13:58:08.535Z,99676.78
2023-05-13T14:03:11.289Z,99699.38
2023-05-13T14:08:13.966Z,99659.69
2023-05-13T14:13:16.666Z,99690.72
2023-05-13T14:18:19.040Z,99665.22
2023-05-13T14:23:21.609Z,99662.34
2023-05-13T14:28:25.105Z,99663.72
2023-05-13T14:33:27.788Z,99668.91
2023-05-13T14:38:30.247Z,99688.69
2023-05-13T14:43:32.703Z,99674.59
2023-05-13T14:48:35.155Z,99660.63
2023-05-13T14:53:37.657Z,99687.44
2023-05-13T14:58:40.036Z,99696.25
2023-05-13T15:03:43.587Z,99696.84
2023-05-13T15:08:46.210Z,99663.38
2023-05-13T15:13:48.749Z,99683.78
2023-05-13T15:18:51.404Z,99659.31
2023-05-13T15:23:53.862Z,99691.09
2023-05-13T15:28:56.303Z,99687.28
2023-05-13T15:33:58.712Z,99689.47
2023-05-13T15:39:02.883Z,99703.50
2023-05-13T15:44:05.666Z,99642.41
2023-05-13T15:49:08.260Z,99711.09
2023-05-13T15:54:10.868Z,99678.34
2023-05-13T15:59:13.449Z,99705.63
2023-05-13T16:04:16.731Z,99674.59
2023-05-13T16:09:19.329Z,99544.16
2023-05-13T16:14:22.096Z,99667.13
2023-05-13T16:19:24.742Z,99692.81
2023-05-13T16:24:27.195Z,99697.75
2023-05-13T16:29:29.832Z,99683.50
2023-05-13T16:34:32.181Z,99629.38
2023-05-13T16:39:34.684Z,99714.69
2023-05-13T16:44:37.252Z,99684.41
2023-05-13T16:49:40.276Z,99705.53
2023-05-13T16:54:45.615Z,99708.97
2023-05-13T16:59:48.471Z,99676.00
2023-05-13T17:04:51.754Z,99715.25
2023-05-13T17:09:54.223Z,99714.03
2023-05-13T17:14:56.922Z,99623.41
2023-05-13T17:19:59.453Z,99765.81
2023-05-13T17:25:02.087Z,99698.59
2023-05-13T17:30:06.579Z,99740.50
2023-05-13T17:35:10.049Z,99753.50
2023-05-13T17:40:13.003Z,99755.09
2023-05-13T17:45:15.556Z,99756.69
2023-05-13T17:50:18.877Z,99714.72
2023-05-13T17:55:21.436Z,99717.81
2023-05-13T18:00:25.475Z,99748.06
2023-05-13T18:05:28.139Z,99746.69
2023-05-13T18:10:30.791Z,99723.97
2023-05-13T18:15:33.493Z,99774.00
2023-05-13T18:20:38.305Z,99746.59
2023-05-13T18:25:52.462Z,99771.50
2023-05-13T18:31:01.037Z,99749.53
2023-05-13T18:36:03.689Z,99802.03
2023-05-13T18:41:07.159Z,99774.88
2023-05-13T18:46:10.051Z,99817.78
2023-05-13T18:51:12.609Z,99772.97
2023-05-13T18:56:15.293Z,99779.50
2023-05-13T19:01:17.996Z,99791.91
2023-05-13T19:06:20.786Z,99739.25
2023-05-13T19:11:23.546Z,99781.28
2023-05-13T19:16:26.706Z,99812.78
2023-05-13T19:21:29.417Z,99744.31
2023-05-13T19:26:31.969Z,99818.41
2023-05-13T19:31:35.881Z,99841.25
2023-05-13T19:36:38.863Z,99852.84
2023-05-13T19:41:41.425Z,99807.81
2023-05-13T19:46:44.113Z,99833.28
2023-05-13T19:51:47.020Z,99832.75
2023-05-13T19:56:49.508Z,99871.97
2023-05-13T20:01:52.330Z,99878.22
2023-05-13T20:06:56.961Z,99853.03
2023-05-13T20:12:00.264Z,99864.56
2023-05-13T20:17:02.776Z,99876.91
2023-05-13T20:22:05.492Z,99865.75
2023-05-13T20:27:07.844Z,99877.19
2023-05-13T20:32:10.975Z,99873.88
2023-05-13T20:37:17.129Z,99863.59
2023-05-13T20:42:21.993Z,99875.03
2023-05-13T20:47:24.456Z,99896.25
2023-05-13T20:52:26.946Z,99885.00
2023-05-13T20:57:29.374Z,99889.47
2023-05-13T21:02:31.920Z,99863.44
2023-05-13T21:07:35.719Z,99828.69
2023-05-13T21:12:38.233Z,99916.00
2023-05-13T21:17:41.195Z,99910.13
2023-05-13T21:22:43.709Z,99900.72
2023-05-13T21:27:46.388Z,99888.53
2023-05-13T21:32:48.922Z,99902.53
2023-05-13T21:37:56.097Z,99871.38
2023-05-13T21:43:03.878Z,99926.38
2023-05-13T21:48:07.280Z,99917.81
2023-05-13T21:53:10.176Z,99927.47
2023-05-13T21:58:12.870Z,99932.84
2023-05-13T22:03:15.456Z,99933.84
2023-05-13T22:08:18.145Z,99916.56
2023-05-13T22:13:21.958Z,99908.00
2023-05-13T22:18:24.881Z,99940.34
2023-05-13T22:23:27.814Z,99895.94
2023-05-13T22:28:30.219Z,99920.41
2023-05-13T22:33:32.673Z,99938.84
2023-05-13T22:38:35.816Z,99944.19
2023-05-13T22:43:38.702Z,99921.56
2023-05-13T22:48:41.214Z,99928.66
2023-05-13T22:53:43.655Z,99891.22
2023-05-13T22:58:46.693Z,99948.88
2023-05-13T23:03:49.126Z,99928.91
2023-05-13T23:08:51.672Z,99899.25
2023-05-13T23:13:54.069Z,99931.69
2023-05-13T23:18:56.726Z,99950.06
2023-05-13T23:23:59.893Z,99874.16
2023-05-13T23:29:02.292Z,99948.41
2023-05-13T23:34:04.726Z,99876.88
2023-05-13T23:39:07.214Z,99883.03
2023-05-13T23:44:09.590Z,99907.53
2023-05-13T23:49:12.307Z,99966.06
2023-05-13T23:54:14.927Z,99926.81
2023-05-13T23:59:17.422Z,99919.88
